createdAt,value
2017-09-04T00:00:08.223Z,84.84
2017-09-04T00:00:36.217Z,85.03
2017-09-04T00:01:04.330Z,85.13
2017-09-04T00:01:32.341Z,84.84
2017-09-04T00:02:00.160Z,85.03
2017-09-04T00:02:28.086Z,84.84
2017-09-04T00:02:56.014Z,85.13
2017-09-04T00:03:24.119Z,85.13
2017-09-04T00:03:52.112Z,85.13
2017-09-04T00:04:19.995Z,85.03
2017-09-04T00:04:47.903Z,85.22
2017-09-04T00:05:15.924Z,85.03
2017-09-04T00:05:44.050Z,85.13
2017-09-04T00:06:12.132Z,85.03
2017-09-04T00:06:40.246Z,84.64
2017-09-04T00:07:08.318Z,85.13
2017-09-04T00:07:36.425Z,84.94
2017-09-04T00:08:04.574Z,85.13
2017-09-04T00:08:32.635Z,85.13
2017-09-04T00:09:00.760Z,84.84
2017-09-04T00:09:28.762Z,84.64
2017-09-04T00:09:56.771Z,84.64
2017-09-04T00:10:24.888Z,84.45
2017-09-04T00:10:52.868Z,84.26
2017-09-04T00:11:20.796Z,84.36
2017-09-04T00:11:48.796Z,84.26
2017-09-04T00:12:16.916Z,84.64
2017-09-04T00:12:44.786Z,84.64
2017-09-04T00:13:12.784Z,84.45
2017-09-04T00:13:40.878Z,84.45
2017-09-04T00:14:08.998Z,83.78
2017-09-04T00:14:37.101Z,83.97
2017-09-04T00:15:04.990Z,83.59
2017-09-04T00:15:32.812Z,83.87
2017-09-04T00:16:00.933Z,83.87
2017-09-04T00:16:28.928Z,83.78
2017-09-04T00:16:57.032Z,84.55
2017-09-04T00:17:25.046Z,84.74
2017-09-04T00:17:53.063Z,83.78
2017-09-04T00:18:20.981Z,83.97
2017-09-04T00:18:48.971Z,84.07
2017-09-04T00:19:16.960Z,83.97
2017-09-04T00:19:45.079Z,84.07
2017-09-04T00:20:13.103Z,83.69
2017-09-04T00:20:40.944Z,83.87
2017-09-04T00:21:09.060Z,83.78
2017-09-04T00:21:37.070Z,83.97
2017-09-04T00:22:05.263Z,83.59
2017-09-04T00:22:33.192Z,83.87
2017-09-04T00:23:01.284Z,83.97
2017-09-04T00:23:29.401Z,83.4
2017-09-04T00:23:57.402Z,83.3
2017-09-04T00:24:39.906Z,83.3
2017-09-04T00:25:08.034Z,83.59
2017-09-04T00:25:35.953Z,84.07
2017-09-04T00:26:04.057Z,84.07
2017-09-04T00:26:32.170Z,83.78
2017-09-04T00:27:00.288Z,83.2
2017-09-04T00:27:28.290Z,83.3
2017-09-04T00:27:56.302Z,83.3
2017-09-04T00:28:24.216Z,83.4
2017-09-04T00:28:52.315Z,83.87
2017-09-04T00:29:20.336Z,83.69
2017-09-04T00:29:48.345Z,83.97
2017-09-04T00:30:16.575Z,83.78
2017-09-04T00:30:45.217Z,83.59
2017-09-04T00:31:14.625Z,83.44
2017-09-04T00:31:44.000Z,83.69
2017-09-04T00:32:12.134Z,83.4
2017-09-04T00:32:40.131Z,83.73
2017-09-04T00:33:09.299Z,83.63
2017-09-04T00:33:37.364Z,83.69
2017-09-04T00:34:05.385Z,83.4
2017-09-04T00:34:33.318Z,83.49
2017-09-04T00:35:01.323Z,83.69
2017-09-04T00:35:29.461Z,83.78
2017-09-04T00:35:57.599Z,83.92
2017-09-04T00:36:25.625Z,83.69
2017-09-04T00:36:53.622Z,83.78
2017-09-04T00:37:21.621Z,83.78
2017-09-04T00:37:49.532Z,83.69
2017-09-04T00:38:17.424Z,84.17
2017-09-04T00:38:45.334Z,83.97
2017-09-04T00:39:13.235Z,83.78
2017-09-04T00:39:41.226Z,83.78
2017-09-04T00:40:09.371Z,83.59
2017-09-04T00:40:37.377Z,84.07
2017-09-04T00:41:05.288Z,83.87
2017-09-04T00:41:33.331Z,84.17
2017-09-04T00:42:01.582Z,83.78
2017-09-04T00:42:29.692Z,84.07
2017-09-04T00:42:57.674Z,84.07
2017-09-04T00:43:25.802Z,83.78
2017-09-04T00:43:53.913Z,84.55
2017-09-04T00:44:21.914Z,84.64
2017-09-04T00:44:49.815Z,84.17
2017-09-04T00:45:17.842Z,84.26
2017-09-04T00:45:45.848Z,84.45
2017-09-04T00:46:13.868Z,84.45
2017-09-04T00:46:41.780Z,84.26
2017-09-04T00:47:09.895Z,84.26
2017-09-04T00:47:37.911Z,84.36
2017-09-04T00:48:06.017Z,84.17
2017-09-04T00:48:34.070Z,84.55
2017-09-04T00:49:02.168Z,83.78
2017-09-04T00:49:30.160Z,84.64
2017-09-04T00:49:58.253Z,84.55
2017-09-04T00:50:26.280Z,84.36
2017-09-04T00:50:54.370Z,84.45
2017-09-04T00:51:22.264Z,84.26
2017-09-04T00:51:50.061Z,84.55
2017-09-04T00:52:18.165Z,84.17
2017-09-04T00:52:46.063Z,84.26
2017-09-04T00:53:14.073Z,84.36
2017-09-04T00:53:42.175Z,84.55
2017-09-04T00:54:10.188Z,84.45
2017-09-04T00:54:38.204Z,84.55
2017-09-04T00:55:06.326Z,85.22
2017-09-04T00:55:34.413Z,85.51
2017-09-04T00:56:02.410Z,85.32
2017-09-04T00:56:30.506Z,85.51
2017-09-04T00:56:58.507Z,85.41
2017-09-04T00:57:26.981Z,85.51
2017-09-04T00:57:54.865Z,85.51
2017-09-04T00:58:22.968Z,85.8
2017-09-04T00:58:51.045Z,85.75
2017-09-04T00:59:18.842Z,85.8
2017-09-04T00:59:46.737Z,85.8
2017-09-04T01:00:14.846Z,85.32
2017-09-04T01:00:42.855Z,85.37
2017-09-04T01:01:10.765Z,85.51
2017-09-04T01:01:38.775Z,85.61
2017-09-04T01:02:06.876Z,85.51
2017-09-04T01:02:34.906Z,85.28
2017-09-04T01:03:02.899Z,85.8
2017-09-04T01:03:30.719Z,85.8
2017-09-04T01:03:58.849Z,85.99
2017-09-04T01:04:26.870Z,86.24
2017-09-04T01:04:54.747Z,86.81
2017-09-04T01:05:22.784Z,86.24
2017-09-04T01:05:50.881Z,86.72
2017-09-04T01:06:18.861Z,86.72
2017-09-04T01:06:46.880Z,86.81
2017-09-04T01:07:15.011Z,86.72
2017-09-04T01:07:42.933Z,86.81
2017-09-04T01:08:10.929Z,87.58
2017-09-04T01:08:38.745Z,87.58
2017-09-04T01:09:06.568Z,87.58
2017-09-04T01:09:34.481Z,87.49
2017-09-04T01:12:21.665Z,88.06
2017-09-04T01:12:49.808Z,88.25
2017-09-04T01:13:17.944Z,88.35
2017-09-04T01:13:45.796Z,88.25
2017-09-04T01:14:13.848Z,88.25
2017-09-04T01:14:41.997Z,88.35
2017-09-04T01:15:10.127Z,88.11
2017-09-04T01:15:38.152Z,88.21
2017-09-04T01:16:06.279Z,88.31
2017-09-04T01:16:34.288Z,88.06
2017-09-04T01:17:02.404Z,87.92
2017-09-04T01:17:30.526Z,88.21
2017-09-04T01:17:58.564Z,88.25
2017-09-04T01:18:26.581Z,88.35
2017-09-04T01:18:54.479Z,88.25
2017-09-04T01:19:22.482Z,87.73
2017-09-04T01:19:50.599Z,88.16
2017-09-04T01:20:18.641Z,88.35
2017-09-04T01:20:46.768Z,88.06
2017-09-04T01:21:14.796Z,88.25
2017-09-04T01:21:42.842Z,88.45
2017-09-04T01:22:10.962Z,88.35
2017-09-04T01:22:38.987Z,88.25
2017-09-04T01:23:07.123Z,88.45
2017-09-04T01:23:35.034Z,88.93
2017-09-04T01:24:03.044Z,88.73
2017-09-04T01:24:31.194Z,88.54
2017-09-04T01:24:59.212Z,88.73
2017-09-04T01:25:27.228Z,88.88
2017-09-04T01:25:55.045Z,89.26
2017-09-04T01:26:23.066Z,89.26
2017-09-04T01:26:51.068Z,88.98
2017-09-04T01:27:19.228Z,88.98
2017-09-04T01:27:47.375Z,89.17
2017-09-04T01:28:15.507Z,89.36
2017-09-04T01:28:43.432Z,89.26
2017-09-04T01:29:11.327Z,89.46
2017-09-04T01:29:39.355Z,89.75
2017-09-04T01:30:07.371Z,89.75
2017-09-04T01:30:35.479Z,89.46
2017-09-04T01:31:03.585Z,89.94
2017-09-04T01:31:31.521Z,89.75
2017-09-04T01:31:59.650Z,90.22
2017-09-04T01:32:27.759Z,90.42
2017-09-04T01:32:55.686Z,90.42
2017-09-04T01:33:23.824Z,90.42
2017-09-04T01:33:51.954Z,90.32
2017-09-04T01:34:19.973Z,89.84
2017-09-04T01:34:48.118Z,90.42
2017-09-04T01:35:16.138Z,90.7
2017-09-04T01:35:44.057Z,90.8
2017-09-04T01:36:11.985Z,90.9
2017-09-04T01:36:40.015Z,90.8
2017-09-04T01:37:08.119Z,90.61
2017-09-04T01:37:36.270Z,90.61
2017-09-04T01:38:04.190Z,90.99
2017-09-04T01:38:32.300Z,90.61
2017-09-04T01:39:00.440Z,90.8
2017-09-04T01:39:28.582Z,90.8
2017-09-04T01:39:56.531Z,90.9
2017-09-04T01:40:24.653Z,91.28
2017-09-04T01:40:52.777Z,91.09
2017-09-04T01:41:20.911Z,91.38
2017-09-04T01:41:49.039Z,91.28
2017-09-04T01:42:16.938Z,91.38
2017-09-04T01:42:45.282Z,90.99
2017-09-04T01:43:13.401Z,91.19
2017-09-04T01:43:41.421Z,90.99
2017-09-04T01:44:09.440Z,91.09
2017-09-04T01:44:37.472Z,91.38
2017-09-04T01:45:05.407Z,91.38
2017-09-04T01:45:33.319Z,91.09
2017-09-04T01:46:01.215Z,91.47
2017-09-04T01:46:29.221Z,91.38
2017-09-04T01:46:57.046Z,91.57
2017-09-04T01:47:25.068Z,91.76
2017-09-04T01:47:53.370Z,92.33
2017-09-04T01:48:21.278Z,91.47
2017-09-04T01:48:49.422Z,92.05
2017-09-04T01:49:17.344Z,91.86
2017-09-04T01:49:45.372Z,92.1
2017-09-04T01:50:13.189Z,92.1
2017-09-04T01:50:41.211Z,91.81
2017-09-04T01:51:09.325Z,92.1
2017-09-04T01:51:37.455Z,91.62
2017-09-04T01:52:05.278Z,92.19
2017-09-04T01:52:33.314Z,92.1
2017-09-04T01:53:01.444Z,92.48
2017-09-04T01:53:29.569Z,92.33
2017-09-04T01:53:57.470Z,92.63
2017-09-04T01:54:25.592Z,92.1
2017-09-04T01:54:53.603Z,92.72
2017-09-04T01:55:21.731Z,92.29
2017-09-04T01:55:49.862Z,92.63
2017-09-04T01:56:18.003Z,92.48
2017-09-04T01:56:46.025Z,92.43
2017-09-04T01:57:14.166Z,92.58
2017-09-04T01:57:42.301Z,92.39
2017-09-04T01:58:10.292Z,92.1
2017-09-04T01:58:38.314Z,92.48
2017-09-04T01:59:06.462Z,92.48
2017-09-04T01:59:34.466Z,93.06
2017-09-04T02:00:02.468Z,92.96
2017-09-04T02:00:30.589Z,92.86
2017-09-04T02:00:58.514Z,92.96
2017-09-04T02:01:26.546Z,93.25
2017-09-04T02:01:54.524Z,92.96
2017-09-04T02:02:22.531Z,93.15
2017-09-04T02:02:50.658Z,93.25
2017-09-04T02:03:18.695Z,92.77
2017-09-04T02:03:46.711Z,93.06
2017-09-04T02:04:14.615Z,93.15
2017-09-04T02:04:42.735Z,92.96
2017-09-04T02:05:10.846Z,92.48
2017-09-04T02:05:38.785Z,92.63
2017-09-04T02:06:06.800Z,92.48
2017-09-04T02:06:34.796Z,92.48
2017-09-04T02:07:02.732Z,92.96
2017-09-04T02:07:30.649Z,92.63
2017-09-04T02:07:58.819Z,92.1
2017-09-04T02:08:26.972Z,92.53
2017-09-04T02:08:55.093Z,93.15
2017-09-04T02:09:23.010Z,92.48
2017-09-04T02:09:51.042Z,92.39
2017-09-04T02:10:19.058Z,92.96
2017-09-04T02:10:47.202Z,92.77
2017-09-04T02:11:15.222Z,93.06
2017-09-04T02:11:43.235Z,93.54
2017-09-04T02:12:11.371Z,93.15
2017-09-04T02:12:39.515Z,93.15
2017-09-04T02:13:07.548Z,93.73
2017-09-04T02:13:35.466Z,93.63
2017-09-04T02:14:03.395Z,93.54
2017-09-04T02:14:31.514Z,93.44
2017-09-04T02:14:59.525Z,93.54
2017-09-04T02:15:27.350Z,93.73
2017-09-04T02:15:55.364Z,94.02
2017-09-04T02:16:23.281Z,93.82
2017-09-04T02:16:51.184Z,94.4
2017-09-04T02:17:19.288Z,94.12
2017-09-04T02:17:47.507Z,93.82
2017-09-04T02:18:15.649Z,93.82
2017-09-04T02:18:43.661Z,94.4
2017-09-04T02:19:11.672Z,94.21
2017-09-04T02:19:39.691Z,94.12
2017-09-04T02:20:07.604Z,94.02
2017-09-04T02:20:35.615Z,94.12
2017-09-04T02:21:03.743Z,94.21
2017-09-04T02:21:31.760Z,94.59
2017-09-04T02:21:59.762Z,94.21
2017-09-04T02:22:27.701Z,94.4
2017-09-04T02:22:55.809Z,94.31
2017-09-04T02:23:23.749Z,94.79
2017-09-04T02:23:51.848Z,94.79
2017-09-04T02:24:19.885Z,94.88
2017-09-04T02:24:47.891Z,94.69
2017-09-04T02:25:15.921Z,94.69
2017-09-04T02:25:43.847Z,94.4
2017-09-04T02:26:11.777Z,94.49
2017-09-04T02:26:39.710Z,94.69
2017-09-04T02:27:07.828Z,94.79
2017-09-04T02:27:35.828Z,94.69
2017-09-04T02:28:04.036Z,94.69
2017-09-04T02:28:32.167Z,94.4
2017-09-04T02:29:00.275Z,94.4
2017-09-04T02:29:28.310Z,94.59
2017-09-04T02:29:56.432Z,94.69
2017-09-04T02:30:24.464Z,94.59
2017-09-04T02:30:52.571Z,94.49
2017-09-04T02:31:20.499Z,94.49
2017-09-04T02:31:48.519Z,95.26
2017-09-04T02:32:16.531Z,94.98
2017-09-04T02:32:44.622Z,94.79
2017-09-04T02:33:12.524Z,95.07
2017-09-04T02:33:40.428Z,94.98
2017-09-04T02:34:08.436Z,94.69
2017-09-04T02:34:36.481Z,95.26
2017-09-04T02:35:04.626Z,95.07
2017-09-04T02:35:33.522Z,95.84
2017-09-04T02:36:01.457Z,95.55
2017-09-04T02:36:29.486Z,95.55
2017-09-04T02:36:57.403Z,95.55
2017-09-04T02:37:25.422Z,95.6
2017-09-04T02:37:53.433Z,95.46
2017-09-04T02:38:21.260Z,95.51
2017-09-04T02:38:49.264Z,96.13
2017-09-04T02:39:17.211Z,95.7
2017-09-04T02:39:45.217Z,96.18
2017-09-04T02:40:13.246Z,96.27
2017-09-04T02:40:42.359Z,96.37
2017-09-04T02:41:10.620Z,96.27
2017-09-04T02:41:38.556Z,96.08
2017-09-04T02:42:06.680Z,95.6
2017-09-04T02:42:34.704Z,96.27
2017-09-04T02:43:02.628Z,96.27
2017-09-04T02:43:30.723Z,96.47
2017-09-04T02:43:58.655Z,96.47
2017-09-04T02:44:26.671Z,96.56
2017-09-04T02:44:54.695Z,96.27
2017-09-04T02:45:22.839Z,96.75
2017-09-04T02:45:50.860Z,96.27
2017-09-04T02:46:18.898Z,96.75
2017-09-04T02:46:46.813Z,96.47
2017-09-04T02:47:14.838Z,96.27
2017-09-04T02:47:42.953Z,95.98
2017-09-04T02:48:11.087Z,96.47
2017-09-04T02:48:39.190Z,96.27
2017-09-04T02:49:07.352Z,96.47
2017-09-04T02:49:35.383Z,96.08
2017-09-04T02:50:03.493Z,96.37
2017-09-04T02:50:31.516Z,96.66
2017-09-04T02:50:59.326Z,96.47
2017-09-04T02:51:27.453Z,96.27
2017-09-04T02:51:55.358Z,96.66
2017-09-04T02:52:23.299Z,96.47
2017-09-04T02:52:51.427Z,96.37
2017-09-04T02:53:19.440Z,96.27
2017-09-04T02:53:47.568Z,96.56
2017-09-04T02:54:15.699Z,96.56
2017-09-04T02:54:43.812Z,96.75
2017-09-04T02:55:11.949Z,96.56
2017-09-04T02:55:39.962Z,96.47
2017-09-04T02:56:07.881Z,96.56
2017-09-04T02:56:35.827Z,96.47
2017-09-04T02:57:03.819Z,96.27
2017-09-04T02:57:31.846Z,96.18
2017-09-04T02:57:59.796Z,96.66
2017-09-04T02:58:27.756Z,95.98
2017-09-04T02:58:55.749Z,96.37
2017-09-04T02:59:23.690Z,96.27
2017-09-04T02:59:51.695Z,96.18
2017-09-04T03:00:19.794Z,96.47
2017-09-04T03:00:47.704Z,96.27
2017-09-04T03:01:15.869Z,95.98
2017-09-04T03:01:43.918Z,95.6
2017-09-04T03:02:12.041Z,95.51
2017-09-04T03:02:40.089Z,95.7
2017-09-04T03:03:08.213Z,95.79
2017-09-04T03:03:36.248Z,95.7
2017-09-04T03:04:04.264Z,95.6
2017-09-04T03:04:32.296Z,95.7
2017-09-04T03:05:00.425Z,95.51
2017-09-04T03:05:28.344Z,95.7
2017-09-04T03:05:56.201Z,96.56
2017-09-04T03:06:24.069Z,96.66
2017-09-04T03:06:51.994Z,96.27
2017-09-04T03:07:20.031Z,96.56
2017-09-04T03:07:48.047Z,96.56
2017-09-04T03:08:16.108Z,95.7
2017-09-04T03:08:44.149Z,96.27
2017-09-04T03:09:12.251Z,96.75
2017-09-04T03:09:40.292Z,96.56
2017-09-04T03:10:08.136Z,96.47
2017-09-04T03:10:36.131Z,96.27
2017-09-04T03:11:04.272Z,96.18
2017-09-04T03:11:32.367Z,96.56
2017-09-04T03:12:00.471Z,96.66
2017-09-04T03:12:28.591Z,95.89
2017-09-04T03:12:56.607Z,95.98
2017-09-04T03:13:24.743Z,95.7
2017-09-04T03:13:52.761Z,96.08
2017-09-04T03:14:20.776Z,95.89
2017-09-04T03:14:48.778Z,95.51
2017-09-04T03:15:16.707Z,95.51
2017-09-04T03:15:44.380Z,95.41
2017-09-04T03:16:12.400Z,95.89
2017-09-04T03:16:40.345Z,95.51
2017-09-04T03:17:08.354Z,95.51
2017-09-04T03:17:37.257Z,95.6
2017-09-04T03:18:05.363Z,95.51
2017-09-04T03:18:33.456Z,94.93
2017-09-04T03:19:01.482Z,94.84
2017-09-04T03:19:29.595Z,94.93
2017-09-04T03:19:57.723Z,95.03
2017-09-04T03:20:25.754Z,95.03
2017-09-04T03:20:53.789Z,94.54
2017-09-04T03:21:21.798Z,94.64
2017-09-04T03:21:49.818Z,94.74
2017-09-04T03:22:17.751Z,94.64
2017-09-04T03:22:45.667Z,94.17
2017-09-04T03:23:13.889Z,94.64
2017-09-04T03:23:41.904Z,94.35
2017-09-04T03:24:09.931Z,93.88
2017-09-04T03:24:38.028Z,94.17
2017-09-04T03:25:06.058Z,94.17
2017-09-04T03:25:34.082Z,93.88
2017-09-04T03:26:01.963Z,93.78
2017-09-04T03:26:29.993Z,93.68
2017-09-04T03:26:58.017Z,93.68
2017-09-04T03:27:26.151Z,93.59
2017-09-04T03:27:54.068Z,93.49
2017-09-04T03:28:22.073Z,93.59
2017-09-04T03:28:50.094Z,93.21
2017-09-04T03:29:18.204Z,93.49
2017-09-04T03:29:46.122Z,93.11
2017-09-04T03:30:14.158Z,93.11
2017-09-04T03:30:42.262Z,92.72
2017-09-04T03:31:10.377Z,92.54
2017-09-04T03:31:38.492Z,92.24
2017-09-04T03:32:06.622Z,92.05
2017-09-04T03:32:34.651Z,92.24
2017-09-04T03:33:02.561Z,92.05
2017-09-04T03:33:30.476Z,92.05
2017-09-04T03:33:58.505Z,91.57
2017-09-04T03:34:26.443Z,92.44
2017-09-04T03:34:54.588Z,92.05
2017-09-04T03:35:22.621Z,92.15
2017-09-04T03:35:50.748Z,92.24
2017-09-04T03:36:18.645Z,92.05
2017-09-04T03:36:46.578Z,92.05
2017-09-04T03:37:14.618Z,91.48
2017-09-04T03:37:42.643Z,91.48
2017-09-04T03:38:10.792Z,91.86
2017-09-04T03:38:38.947Z,91
2017-09-04T03:39:06.987Z,91.38
2017-09-04T03:39:35.031Z,91.28
2017-09-04T03:40:03.051Z,91.28
2017-09-04T03:40:30.980Z,91
2017-09-04T03:40:58.990Z,90.9
2017-09-04T03:41:26.994Z,91.28
2017-09-04T03:41:55.110Z,90.42
2017-09-04T03:42:23.232Z,90.81
2017-09-04T03:42:51.250Z,90.42
2017-09-04T03:43:19.288Z,90.9
2017-09-04T03:43:47.287Z,91
2017-09-04T03:44:15.396Z,91.09
2017-09-04T03:44:43.541Z,91.09
2017-09-04T03:45:11.674Z,90.61
2017-09-04T03:45:39.582Z,90.61
2017-09-04T03:46:07.580Z,90.33
2017-09-04T03:46:35.690Z,90.33
2017-09-04T03:47:03.502Z,90.04
2017-09-04T03:47:31.407Z,90.14
2017-09-04T03:47:59.327Z,90.33
2017-09-04T03:48:27.337Z,89.47
2017-09-04T03:48:55.482Z,89.47
2017-09-04T03:49:23.422Z,88.98
2017-09-04T03:49:51.446Z,89.27
2017-09-04T03:50:19.255Z,89.37
2017-09-04T03:50:47.364Z,89.18
2017-09-04T03:51:15.319Z,89.37
2017-09-04T03:51:43.324Z,88.79
2017-09-04T03:52:11.424Z,88.22
2017-09-04T03:52:39.429Z,88.89
2017-09-04T03:53:07.650Z,88.22
2017-09-04T03:53:35.768Z,88.6
2017-09-04T03:54:03.886Z,88.41
2017-09-04T03:54:31.923Z,88.6
2017-09-04T03:55:00.047Z,88.02
2017-09-04T03:55:27.963Z,87.93
2017-09-04T03:55:56.083Z,88.02
2017-09-04T03:56:24.025Z,87.64
2017-09-04T03:56:51.839Z,87.84
2017-09-04T03:57:19.978Z,87.41
2017-09-04T03:57:47.916Z,88.17
2017-09-04T03:58:15.941Z,88.17
2017-09-04T03:58:43.984Z,87.74
2017-09-04T03:59:11.915Z,87.79
2017-09-04T03:59:39.834Z,88.17
2017-09-04T04:00:07.870Z,87.98
2017-09-04T04:00:35.907Z,87.41
2017-09-04T04:01:03.920Z,87.5
2017-09-04T04:01:32.054Z,87.31
2017-09-04T04:02:00.075Z,87.6
2017-09-04T04:02:28.169Z,87.12
2017-09-04T04:02:56.297Z,87.41
2017-09-04T04:03:24.334Z,87.02
2017-09-04T04:03:52.235Z,87.31
2017-09-04T04:04:20.152Z,87.12
2017-09-04T04:04:48.196Z,87.88
2017-09-04T04:05:16.519Z,87.02
2017-09-04T04:05:44.557Z,86.74
2017-09-04T04:06:13.508Z,86.45
2017-09-04T04:06:41.452Z,86.64
2017-09-04T04:07:09.548Z,86.45
2017-09-04T04:07:37.561Z,86.54
2017-09-04T04:08:05.594Z,86.07
2017-09-04T04:08:33.702Z,86.16
2017-09-04T04:09:01.721Z,86.45
2017-09-04T04:09:29.900Z,86.54
2017-09-04T04:09:57.813Z,86.35
2017-09-04T04:10:25.948Z,86.83
2017-09-04T04:10:54.076Z,86.54
2017-09-04T04:11:22.216Z,86.54
2017-09-04T04:11:50.314Z,86.25
2017-09-04T04:12:18.340Z,86.16
2017-09-04T04:12:46.398Z,86.54
2017-09-04T04:13:14.612Z,86.45
2017-09-04T04:13:42.724Z,86.54
2017-09-04T04:14:10.845Z,86.45
2017-09-04T04:14:38.967Z,86.64
2017-09-04T04:15:07.098Z,86.64
2017-09-04T04:15:35.100Z,86.25
2017-09-04T04:16:03.125Z,86.16
2017-09-04T04:16:31.144Z,86.16
2017-09-04T04:16:59.267Z,86.16
2017-09-04T04:17:27.387Z,86.16
2017-09-04T04:17:55.314Z,86.16
2017-09-04T04:18:23.413Z,86.54
2017-09-04T04:18:51.425Z,85.78
2017-09-04T04:19:19.546Z,85.97
2017-09-04T04:19:47.572Z,86.45
2017-09-04T04:20:15.676Z,86.54
2017-09-04T04:20:43.739Z,86.07
2017-09-04T04:21:11.665Z,86.25
2017-09-04T04:21:39.591Z,86.54
2017-09-04T04:22:07.738Z,86.45
2017-09-04T04:22:35.761Z,86.25
2017-09-04T04:23:03.798Z,86.45
2017-09-04T04:23:32.222Z,86.16
2017-09-04T04:24:00.099Z,86.35
2017-09-04T04:24:28.123Z,86.35
2017-09-04T04:24:56.146Z,86.25
2017-09-04T04:25:24.303Z,86.16
2017-09-04T04:25:52.240Z,85.68
2017-09-04T04:26:20.371Z,86.16
2017-09-04T04:26:48.482Z,85.58
2017-09-04T04:27:16.412Z,85.58
2017-09-04T04:27:44.443Z,85.97
2017-09-04T04:28:12.677Z,86.07
2017-09-04T04:28:40.594Z,86.16
2017-09-04T04:29:08.626Z,86.16
2017-09-04T04:29:36.564Z,85.68
2017-09-04T04:30:04.461Z,86.25
2017-09-04T04:30:32.488Z,85.88
2017-09-04T04:31:00.615Z,85.68
2017-09-04T04:31:28.646Z,85.68
2017-09-04T04:31:56.790Z,86.07
2017-09-04T04:32:24.727Z,86.07
2017-09-04T04:32:52.863Z,86.16
2017-09-04T04:33:20.890Z,86.16
2017-09-04T04:33:49.013Z,85.93
2017-09-04T04:34:17.146Z,86.02
2017-09-04T04:34:45.145Z,85.78
2017-09-04T04:35:13.181Z,86.41
2017-09-04T04:35:41.075Z,86.6
2017-09-04T04:36:09.158Z,86.54
2017-09-04T04:36:37.284Z,86.5
2017-09-04T04:37:05.422Z,86.5
2017-09-04T04:37:33.342Z,86.12
2017-09-04T04:38:01.445Z,86.31
2017-09-04T04:38:29.452Z,86.45
2017-09-04T04:38:57.570Z,86.12
2017-09-04T04:39:25.701Z,86.21
2017-09-04T04:39:53.696Z,86.12
2017-09-04T04:40:21.735Z,86.02
2017-09-04T04:40:49.659Z,86.12
2017-09-04T04:41:17.685Z,86.12
2017-09-04T04:41:45.695Z,86.5
2017-09-04T04:42:13.708Z,86.25
2017-09-04T04:42:41.734Z,86.12
2017-09-04T04:43:09.749Z,85.74
2017-09-04T04:43:37.936Z,86.21
2017-09-04T04:44:05.831Z,86.02
2017-09-04T04:44:33.876Z,86.12
2017-09-04T04:45:01.785Z,86.12
2017-09-04T04:45:29.793Z,86.12
2017-09-04T04:45:57.699Z,86.21
2017-09-04T04:46:25.843Z,86.31
2017-09-04T04:46:53.862Z,86.41
2017-09-04T04:47:21.978Z,86.31
2017-09-04T04:47:50.007Z,86.5
2017-09-04T04:48:18.031Z,86.41
2017-09-04T04:48:46.048Z,86.02
2017-09-04T04:49:14.176Z,86.31
2017-09-04T04:49:42.200Z,86.21
2017-09-04T04:50:10.132Z,86.12
2017-09-04T04:50:38.010Z,86.21
2017-09-04T04:51:06.101Z,86.21
2017-09-04T04:51:34.138Z,86.31
2017-09-04T04:52:02.290Z,85.93
2017-09-04T04:52:30.334Z,86.31
2017-09-04T04:52:58.356Z,86.12
2017-09-04T04:53:26.706Z,86.31
2017-09-04T04:53:54.806Z,86.02
2017-09-04T04:54:22.593Z,86.12
2017-09-04T04:54:50.734Z,86.6
2017-09-04T04:55:18.672Z,86.21
2017-09-04T04:55:46.775Z,86.6
2017-09-04T04:56:14.769Z,86.6
2017-09-04T04:56:42.815Z,86.6
2017-09-04T04:57:10.717Z,86.79
2017-09-04T04:57:38.719Z,86.69
2017-09-04T04:58:06.844Z,86.69
2017-09-04T04:58:34.969Z,86.98
2017-09-04T04:59:02.985Z,87.08
2017-09-04T04:59:31.097Z,87.08
2017-09-04T04:59:59.019Z,87.08
2017-09-04T05:00:28.050Z,87.65
2017-09-04T05:00:56.193Z,87.46
2017-09-04T05:01:24.354Z,87.65
2017-09-04T05:01:52.301Z,87.46
2017-09-04T05:02:20.229Z,87.37
2017-09-04T05:02:48.245Z,87.08
2017-09-04T05:03:16.299Z,87.08
2017-09-04T05:03:44.123Z,86.79
2017-09-04T05:04:12.135Z,87.46
2017-09-04T05:04:40.072Z,87.65
2017-09-04T05:05:07.988Z,87.65
2017-09-04T05:05:36.006Z,87.46
2017-09-04T05:06:04.107Z,87.37
2017-09-04T05:06:32.221Z,87.55
2017-09-04T05:07:00.249Z,87.37
2017-09-04T05:07:28.065Z,86.98
2017-09-04T05:07:56.014Z,87.46
2017-09-04T05:08:24.337Z,87.37
2017-09-04T05:08:52.358Z,87.17
2017-09-04T05:09:20.409Z,87.37
2017-09-04T05:09:48.308Z,87.27
2017-09-04T05:10:16.409Z,87.65
2017-09-04T05:10:44.538Z,87.27
2017-09-04T05:11:12.631Z,87.46
2017-09-04T05:11:40.753Z,87.7
2017-09-04T05:12:08.671Z,87.84
2017-09-04T05:12:36.476Z,87.08
2017-09-04T05:13:04.416Z,87.46
2017-09-04T05:13:32.621Z,87.08
2017-09-04T05:14:00.777Z,87.61
2017-09-04T05:14:28.993Z,88.23
2017-09-04T05:14:57.036Z,88.28
2017-09-04T05:15:24.938Z,88.09
2017-09-04T05:15:52.978Z,87.99
2017-09-04T05:16:20.800Z,88.13
2017-09-04T05:16:48.834Z,88.13
2017-09-04T05:17:16.876Z,87.99
2017-09-04T05:17:45.008Z,88.13
2017-09-04T05:18:13.152Z,88.09
2017-09-04T05:18:41.174Z,88.09
2017-09-04T05:19:09.184Z,87.61
2017-09-04T05:19:37.187Z,87.61
2017-09-04T05:20:05.085Z,88.09
2017-09-04T05:20:33.212Z,88.09
2017-09-04T05:21:01.030Z,87.8
2017-09-04T05:21:29.164Z,87.61
2017-09-04T05:21:57.300Z,87.61
2017-09-04T05:22:25.310Z,88.18
2017-09-04T05:22:53.356Z,88.09
2017-09-04T05:23:21.382Z,87.9
2017-09-04T05:23:49.846Z,88.09
2017-09-04T05:24:17.883Z,88.28
2017-09-04T05:24:45.879Z,88.09
2017-09-04T05:25:13.881Z,88.09
2017-09-04T05:25:41.904Z,88.09
2017-09-04T05:26:09.898Z,88.37
2017-09-04T05:26:37.831Z,88.37
2017-09-04T05:27:05.660Z,88.47
2017-09-04T05:27:33.760Z,88.28
2017-09-04T05:28:01.593Z,88.66
2017-09-04T05:28:29.500Z,88.37
2017-09-04T05:28:57.728Z,88.37
2017-09-04T05:29:25.640Z,88.28
2017-09-04T05:29:53.578Z,88.47
2017-09-04T05:30:21.739Z,88.66
2017-09-04T05:30:49.868Z,89.04
2017-09-04T05:31:17.877Z,89.33
2017-09-04T05:31:45.893Z,89.33
2017-09-04T05:32:13.913Z,88.95
2017-09-04T05:32:41.937Z,88.47
2017-09-04T05:33:09.938Z,89.23
2017-09-04T05:33:38.065Z,89.33
2017-09-04T05:34:05.981Z,89.23
2017-09-04T05:34:33.991Z,89.33
2017-09-04T05:35:02.016Z,89.14
2017-09-04T05:35:30.014Z,89.14
2017-09-04T05:35:58.138Z,88.76
2017-09-04T05:36:26.283Z,88.66
2017-09-04T05:36:54.215Z,89.14
2017-09-04T05:37:22.307Z,89.14
2017-09-04T05:37:50.319Z,89.33
2017-09-04T05:38:18.439Z,88.95
2017-09-04T05:38:46.732Z,89.04
2017-09-04T05:39:14.875Z,88.95
2017-09-04T05:39:42.894Z,89.33
2017-09-04T05:40:10.789Z,88.95
2017-09-04T05:40:38.839Z,89.14
2017-09-04T05:41:06.855Z,89.04
2017-09-04T05:41:34.954Z,89.14
2017-09-04T05:42:02.963Z,89.04
2017-09-04T05:42:31.070Z,89.04
2017-09-04T05:42:59.180Z,89.14
2017-09-04T05:43:27.204Z,89.14
2017-09-04T05:43:55.465Z,89.14
2017-09-04T05:44:23.478Z,89.43
2017-09-04T05:44:51.614Z,89.33
2017-09-04T05:45:19.516Z,89.52
2017-09-04T05:45:47.536Z,89.62
2017-09-04T05:46:15.665Z,89.62
2017-09-04T05:46:43.703Z,89.43
2017-09-04T05:47:11.629Z,89.23
2017-09-04T05:47:39.639Z,89.23
2017-09-04T05:48:07.786Z,89.52
2017-09-04T05:48:35.875Z,89.72
2017-09-04T05:49:03.904Z,90
2017-09-04T05:49:31.929Z,89.81
2017-09-04T05:49:59.936Z,90.19
2017-09-04T05:50:28.062Z,90.34
2017-09-04T05:50:56.095Z,90.15
2017-09-04T05:51:24.143Z,90.29
2017-09-04T05:51:52.171Z,90.24
2017-09-04T05:52:19.972Z,89.95
2017-09-04T05:52:47.880Z,90.05
2017-09-04T05:53:15.880Z,90.15
2017-09-04T05:53:44.244Z,90.05
2017-09-04T05:54:12.368Z,90.05
2017-09-04T05:54:40.292Z,90.15
2017-09-04T05:55:08.305Z,90.34
2017-09-04T05:55:36.212Z,90.67
2017-09-04T05:56:04.330Z,90.48
2017-09-04T05:56:32.467Z,90.24
2017-09-04T05:57:00.391Z,90.58
2017-09-04T05:57:28.437Z,90.63
2017-09-04T05:57:56.479Z,90.24
2017-09-04T05:58:24.606Z,90.34
2017-09-04T05:58:52.744Z,90.19
2017-09-04T05:59:20.888Z,90.72
2017-09-04T05:59:48.924Z,90.29
2017-09-04T06:00:16.758Z,90.77
2017-09-04T06:00:44.545Z,90.15
2017-09-04T06:01:12.647Z,90.77
2017-09-04T06:01:40.975Z,90.44
2017-09-04T06:02:08.995Z,90.53
2017-09-04T06:02:37.129Z,91.2
2017-09-04T06:03:05.150Z,90.82
2017-09-04T06:03:33.237Z,91.01
2017-09-04T06:04:01.249Z,90.91
2017-09-04T06:04:29.266Z,90.91
2017-09-04T06:04:57.200Z,90.91